Charlotte Roush — WDE5112 — position and weather

sailwx.info

Track history (hours):
 
Tides and Currents Weather Stations Pressure Air Temp Water Temp Dewpoint Dewpoint Depression Visibility Wind Speed Wind Dir Waves Ship Positions

Charlotte Roush

Owner: AEP River Operations LLC, Chesterfield, MO. More information available from US FCC via Universal Licensing System and Coast Guard Vessel Documentation Center.

Last reported at 2015-Aug-01 15:27 UTC. Time now 2015-Aug-03 04:35 UTC.
Position N 29°57' W 090°01'.

Length 35 m; draft 3 m.

Type: Towing. MMSI: 367362230.

Date/timePositionNaut miles runAvg speedWind from/ knotsBaromVisibWave heightAir tempDewpointWater temp
2015-Aug-01 15:27N 29°57' W 090°01'0 0.1
2015-Aug-01 14:29N 29°57' W 090°01'0 0.0
2015-Jul-30 11:28N 29°57' W 090°01'0 0.0
2015-Jul-29 16:31N 29°57' W 090°01'6 6.0
2015-Jul-29 15:33N 29°54' W 090°07'1 0.0
2015-Jul-28 07:26N 29°55' W 090°08'4 4.0
2015-Jul-28 06:29N 29°56' W 090°04'3 3.1
2015-Jul-28 05:32N 29°57' W 090°01'1 0.1
2015-Jul-27 22:26N 29°56' W 090°00'1 0.8
2015-Jul-27 21:31N 29°57' W 090°01'20 0.5
2015-Jul-26 09:23N 29°57' W 090°24'20 2.2
2015-Jul-26 00:27N 29°56' W 090°01'0 0.4
2015-Jul-25 23:17N 29°57' W 090°01'0 0.0
2015-Jul-25 22:31N 29°57' W 090°01'1 0.1
2015-Jul-25 10:22N 29°56' W 089°60'6 5.6
2015-Jul-25 09:12N 29°54' W 090°07'7 2.2
2015-Jul-25 06:05N 29°58' W 090°14'5 0.1
2015-Jul-23 05:33N 29°56' W 090°08'3 2.6
2015-Jul-23 04:32N 29°55' W 090°06'5 3.2
2015-Jul-23 03:05N 29°57' W 090°01'0 0.2
2015-Jul-23 01:19N 29°57' W 090°01'  
Track history (hours):
 
Tides and Currents Weather Stations Pressure Air Temp Water Temp Dewpoint Dewpoint Depression Visibility Wind Speed Wind Dir Waves Ship Positions

Charlotte Roush

Owner: AEP River Operations LLC, Chesterfield, MO. More information available from US FCC via Universal Licensing System and Coast Guard Vessel Documentation Center.

Last reported at 2015-Aug-01 15:27 UTC. Time now 2015-Aug-03 04:35 UTC.
Position N 29°57' W 090°01'.

Length 35 m; draft 3 m.

Type: Towing. MMSI: 367362230.

Date/timePositionNaut miles runAvg speedWind from/ knotsBaromVisibWave heightAir tempDewpointWater temp
2015-Aug-01 15:27N 29°57' W 090°01'0 0.1
2015-Aug-01 14:29N 29°57' W 090°01'0 0.0
2015-Jul-30 11:28N 29°57' W 090°01'0 0.0
2015-Jul-29 16:31N 29°57' W 090°01'6 6.0
2015-Jul-29 15:33N 29°54' W 090°07'1 0.0
2015-Jul-28 07:26N 29°55' W 090°08'4 4.0
2015-Jul-28 06:29N 29°56' W 090°04'3 3.1
2015-Jul-28 05:32N 29°57' W 090°01'1 0.1
2015-Jul-27 22:26N 29°56' W 090°00'1 0.8
2015-Jul-27 21:31N 29°57' W 090°01'20 0.5
2015-Jul-26 09:23N 29°57' W 090°24'20 2.2
2015-Jul-26 00:27N 29°56' W 090°01'0 0.4
2015-Jul-25 23:17N 29°57' W 090°01'0 0.0
2015-Jul-25 22:31N 29°57' W 090°01'1 0.1
2015-Jul-25 10:22N 29°56' W 089°60'6 5.6
2015-Jul-25 09:12N 29°54' W 090°07'7 2.2
2015-Jul-25 06:05N 29°58' W 090°14'5 0.1
2015-Jul-23 05:33N 29°56' W 090°08'3 2.6
2015-Jul-23 04:32N 29°55' W 090°06'5 3.2
2015-Jul-23 03:05N 29°57' W 090°01'0 0.2
2015-Jul-23 01:19N 29°57' W 090°01'  

Dump ship's entire track history